Leon — D5BH4 — position and weather

sailwx.info

Track history (hours):
 
Tides and Currents Weather Stations Pressure Air Temp Water Temp Dewpoint Dewpoint Depression Visibility Wind Speed Wind Dir Waves Ship Positions

Leon

Last reported at 2015-Sep-05 13:33 UTC. Time now 2015-Sep-05 14:18 UTC.
Position N 54°35' E 007°17'.

Length 95 m; draft 5.8 m.

Type: Ship (hazmat cat C). MMSI: 636015519.

Date/timePositionNaut miles runAvg speedWind from/ knotsBaromVisibWave heightAir tempDewpointWater temp
2015-Sep-05 13:33N 54°35' E 007°17'2110.3
2015-Sep-05 11:28N 54°56' E 007°08'910.1
2015-Sep-05 10:33N 55°05' E 007°04'10 9.8
2015-Sep-05 09:33N 55°15' E 007°02'10 9.7
2015-Sep-05 08:33N 55°24' E 007°01'9 8.6
2015-Sep-05 07:33N 55°33' E 007°05'186 8.8
2015-Sep-04 10:19N 57°53' E 010°47'7 8.9
2015-Sep-04 09:31N 57°49' E 010°59'9 9.2
2015-Sep-04 08:33N 57°44' E 011°13'9 8.7
2015-Sep-04 07:33N 57°40' E 011°27'8 8.1
2015-Sep-04 06:33N 57°38' E 011°41'7 6.7
2015-Sep-04 05:32N 57°41' E 011°53'0 0.0
2015-Sep-04 04:32N 57°41' E 011°53'0 0.0
2015-Sep-04 03:32N 57°41' E 011°53'0 0.0
2015-Sep-04 02:32N 57°41' E 011°53'0 0.0
2015-Sep-04 01:32N 57°41' E 011°53'0 0.0
2015-Sep-04 00:32N 57°41' E 011°53'0 0.0
2015-Sep-03 23:32N 57°41' E 011°53'0 0.0
2015-Sep-03 22:32N 57°41' E 011°53'0 0.0
2015-Sep-03 21:23N 57°41' E 011°53'0 0.0
2015-Sep-03 20:32N 57°41' E 011°53'0 0.0
2015-Sep-03 19:32N 57°41' E 011°53'0 0.0
2015-Sep-03 18:32N 57°41' E 011°53'0 0.0
2015-Sep-03 17:32N 57°41' E 011°53'0 0.0
2015-Sep-03 16:29N 57°41' E 011°53'0 0.0
2015-Sep-03 15:32N 57°41' E 011°53'0 0.0
2015-Sep-03 14:32N 57°41' E 011°53'0 0.0
2015-Sep-03 13:32N 57°41' E 011°53'0 0.0
2015-Sep-03 12:32N 57°41' E 011°53'0 0.0
2015-Sep-03 11:29N 57°41' E 011°53'0 0.0
2015-Sep-03 10:32N 57°41' E 011°53'0 0.0
2015-Sep-03 09:32N 57°41' E 011°53'0 0.0
2015-Sep-03 08:32N 57°41' E 011°53'0 0.0
2015-Sep-03 07:32N 57°41' E 011°53'0 0.0
2015-Sep-03 06:32N 57°41' E 011°53'0 0.0
2015-Sep-03 05:32N 57°41' E 011°53'0 0.0
2015-Sep-03 04:32N 57°41' E 011°53'0 0.0
2015-Sep-03 03:32N 57°41' E 011°53'0 0.0
2015-Sep-03 02:32N 57°41' E 011°53'0 0.0
2015-Sep-03 01:32N 57°41' E 011°53'0 0.0
2015-Sep-03 00:32N 57°41' E 011°53'0 0.0
2015-Sep-02 23:32N 57°41' E 011°53'0 0.0
2015-Sep-02 22:32N 57°41' E 011°53'0 0.0
2015-Sep-02 21:26N 57°41' E 011°53'0 0.0
2015-Sep-02 20:34N 57°41' E 011°53'7 7.0
2015-Sep-02 19:33N 57°38' E 011°42'8 7.8
2015-Sep-02 18:33N 57°34' E 011°28'9 9.3
2015-Sep-02 17:33N 57°35' E 011°11'10 9.6
2015-Sep-02 16:31N 57°41' E 010°57'9 9.7
2015-Sep-02 15:33N 57°48' E 010°44'328 9.1
2015-Sep-01 03:26N 53°30' E 004°45'6 6.6
2015-Sep-01 02:28N 53°24' E 004°41'29 6.0
2015-Aug-31 21:33N 52°57' E 004°20'7 6.7
2015-Aug-31 20:32N 52°51' E 004°15'8 8.6
2015-Aug-31 19:34N 52°44' E 004°08'5810.7
2015-Aug-31 14:08N 51°53' E 003°22'16 9.7
2015-Aug-31 12:31N 51°37' E 003°22'8 8.7
2015-Aug-31 11:33N 51°30' E 003°28'8 7.5
2015-Aug-31 10:33N 51°26' E 003°39'9 8.9
2015-Aug-31 09:33N 51°21' E 003°50'8 8.2
2015-Aug-31 08:34N 51°24' E 004°02'9 9.4
2015-Aug-31 07:34N 51°21' E 004°16'5 4.8
2015-Aug-31 06:34N 51°17' E 004°20'2 1.5
2015-Aug-31 05:32N 51°15' E 004°22'0 0.0
2015-Aug-31 04:32N 51°15' E 004°22'0 0.0
2015-Aug-31 03:32N 51°15' E 004°22'0 0.0
2015-Aug-31 02:32N 51°15' E 004°22'0 0.0
2015-Aug-31 01:29N 51°15' E 004°22'0 0.0
2015-Aug-31 00:32N 51°15' E 004°22'0 0.0
2015-Aug-30 23:29N 51°15' E 004°22'0 0.0
2015-Aug-30 22:32N 51°15' E 004°22'0 0.0
2015-Aug-30 21:32N 51°15' E 004°22'0 0.0
2015-Aug-30 20:32N 51°15' E 004°22'0 0.0
2015-Aug-30 19:32N 51°15' E 004°22'0 0.0
2015-Aug-30 18:32N 51°15' E 004°22'0 0.0
2015-Aug-30 17:32N 51°15' E 004°22'0 0.0
2015-Aug-30 16:32N 51°15' E 004°22'0 0.0
2015-Aug-30 15:32N 51°15' E 004°22'0 0.0
2015-Aug-30 14:32N 51°15' E 004°22'0 0.0
2015-Aug-30 13:29N 51°15' E 004°22'0 0.0
2015-Aug-30 12:32N 51°15' E 004°22'0 0.0
2015-Aug-30 11:32N 51°15' E 004°22'0 0.0
2015-Aug-30 10:32N 51°15' E 004°22'0 0.0
2015-Aug-30 09:32N 51°15' E 004°22'0 0.0
2015-Aug-30 08:32N 51°15' E 004°22'0 0.0
2015-Aug-30 07:32N 51°15' E 004°22'0 0.0
2015-Aug-30 06:32N 51°15' E 004°22'0 0.0
2015-Aug-30 05:32N 51°15' E 004°22'0 0.0
2015-Aug-30 04:32N 51°15' E 004°22'0 0.0
2015-Aug-30 03:32N 51°15' E 004°22'0 0.0
2015-Aug-30 02:32N 51°15' E 004°22'0 0.0
2015-Aug-30 01:32N 51°15' E 004°22'0 0.0
2015-Aug-30 00:32N 51°15' E 004°22'0 0.0
2015-Aug-29 23:32N 51°15' E 004°22'0 0.0
2015-Aug-29 22:32N 51°15' E 004°22'0 0.0
2015-Aug-29 21:32N 51°15' E 004°22'0 0.0
2015-Aug-29 20:32N 51°15' E 004°22'0 0.0
2015-Aug-29 19:32N 51°15' E 004°22'0 0.0
2015-Aug-29 18:32N 51°15' E 004°22'0 0.0
2015-Aug-29 17:32N 51°15' E 004°22'0 0.0
2015-Aug-29 16:29N 51°15' E 004°22'0 0.3
2015-Aug-29 15:33N 51°16' E 004°21'1 1.4
2015-Aug-29 14:33N 51°17' E 004°20'5 4.6
2015-Aug-29 13:33N 51°21' E 004°16'9 9.0
2015-Aug-29 12:33N 51°23' E 004°02'9 8.8
2015-Aug-29 11:33N 51°21' E 003°49'1110.8
2015-Aug-29 10:33N 51°26' E 003°34'1110.9
2015-Aug-29 09:33N 51°35' E 003°23'57 9.5
2015-Aug-29 03:33N 52°32' E 003°29'8 8.3
2015-Aug-29 02:33N 52°40' E 003°34'67 9.2
2015-Aug-28 19:16N 53°31' E 004°47'9 8.5
2015-Aug-28 18:16N 53°34' E 005°00'6 8.2
2015-Aug-28 17:33N 53°36' E 005°10'8 7.9
2015-Aug-28 16:33N 53°38' E 005°22'8 8.3
2015-Aug-28 15:33N 53°41' E 005°36'9 9.2
2015-Aug-28 14:33N 53°45' E 005°50'49 9.8
2015-Aug-28 09:33N 53°58' E 007°10'9 8.7
2015-Aug-28 08:33N 53°59' E 007°24'8 8.4
2015-Aug-28 07:33N 54°01' E 007°39'8 8.2
2015-Aug-28 06:33N 54°02' E 007°52'8 8.3
2015-Aug-28 05:33N 54°01' E 008°07'8 8.3
2015-Aug-28 04:33N 53°60' E 008°20'1110.9
2015-Aug-28 03:33N 53°57' E 008°38'1111.2
2015-Aug-28 02:33N 53°51' E 008°54'9 9.1
2015-Aug-28 01:33N 53°54' E 009°09'5 4.6
2015-Aug-28 00:33N 53°57' E 009°14'24 7.7
2015-Aug-27 21:30N 54°16' E 009°38'8 8.2
2015-Aug-27 20:33N 54°22' E 009°47'8 8.0
2015-Aug-27 19:33N 54°21' E 010°01'2 1.6
2015-Aug-27 18:33N 54°22' E 010°04'3 3.3
2015-Aug-27 17:33N 54°22' E 010°09'5 5.0
2015-Aug-27 16:33N 54°26' E 010°13'8 8.1
2015-Aug-27 15:33N 54°32' E 010°24'9 9.0
2015-Aug-27 14:33N 54°35' E 010°39'18 8.9
2015-Aug-27 12:33N 54°36' E 011°09'9 8.9
2015-Aug-27 11:33N 54°33' E 011°23'10 9.6
2015-Aug-27 10:33N 54°29' E 011°38'9 9.3
2015-Aug-27 09:33N 54°27' E 011°54'9 9.1
2015-Aug-27 08:33N 54°28' E 012°10'36 8.7
2015-Aug-27 04:25N 54°51' E 012°57'8 8.8
2015-Aug-27 03:33N 54°53' E 013°10'9 9.0
2015-Aug-27 02:32N 54°57' E 013°24'9 9.0
2015-Aug-27 01:33N 54°60' E 013°39'9 8.7
2015-Aug-27 00:33N 55°02' E 013°53'8 8.4
2015-Aug-26 23:33N 55°06' E 014°06'8 8.5
2015-Aug-26 22:33N 55°13' E 014°16'9 8.8
2015-Aug-26 21:33N 55°20' E 014°25'9 9.1
2015-Aug-26 20:33N 55°26' E 014°36'9 9.2
2015-Aug-26 19:33N 55°31' E 014°50'9 9.1
2015-Aug-26 18:33N 55°36' E 015°03'  
Track history (hours):
 
Tides and Currents Weather Stations Pressure Air Temp Water Temp Dewpoint Dewpoint Depression Visibility Wind Speed Wind Dir Waves Ship Positions

Leon

Last reported at 2015-Sep-05 13:33 UTC. Time now 2015-Sep-05 14:18 UTC.
Position N 54°35' E 007°17'.

Length 95 m; draft 5.8 m.

Type: Ship (hazmat cat C). MMSI: 636015519.

Date/timePositionNaut miles runAvg speedWind from/ knotsBaromVisibWave heightAir tempDewpointWater temp
2015-Sep-05 13:33N 54°35' E 007°17'2110.3
2015-Sep-05 11:28N 54°56' E 007°08'910.1
2015-Sep-05 10:33N 55°05' E 007°04'10 9.8
2015-Sep-05 09:33N 55°15' E 007°02'10 9.7
2015-Sep-05 08:33N 55°24' E 007°01'9 8.6
2015-Sep-05 07:33N 55°33' E 007°05'186 8.8
2015-Sep-04 10:19N 57°53' E 010°47'7 8.9
2015-Sep-04 09:31N 57°49' E 010°59'9 9.2
2015-Sep-04 08:33N 57°44' E 011°13'9 8.7
2015-Sep-04 07:33N 57°40' E 011°27'8 8.1
2015-Sep-04 06:33N 57°38' E 011°41'7 6.7
2015-Sep-04 05:32N 57°41' E 011°53'0 0.0
2015-Sep-04 04:32N 57°41' E 011°53'0 0.0
2015-Sep-04 03:32N 57°41' E 011°53'0 0.0
2015-Sep-04 02:32N 57°41' E 011°53'0 0.0
2015-Sep-04 01:32N 57°41' E 011°53'0 0.0
2015-Sep-04 00:32N 57°41' E 011°53'0 0.0
2015-Sep-03 23:32N 57°41' E 011°53'0 0.0
2015-Sep-03 22:32N 57°41' E 011°53'0 0.0
2015-Sep-03 21:23N 57°41' E 011°53'0 0.0
2015-Sep-03 20:32N 57°41' E 011°53'0 0.0
2015-Sep-03 19:32N 57°41' E 011°53'0 0.0
2015-Sep-03 18:32N 57°41' E 011°53'0 0.0
2015-Sep-03 17:32N 57°41' E 011°53'0 0.0
2015-Sep-03 16:29N 57°41' E 011°53'0 0.0
2015-Sep-03 15:32N 57°41' E 011°53'0 0.0
2015-Sep-03 14:32N 57°41' E 011°53'0 0.0
2015-Sep-03 13:32N 57°41' E 011°53'0 0.0
2015-Sep-03 12:32N 57°41' E 011°53'0 0.0
2015-Sep-03 11:29N 57°41' E 011°53'0 0.0
2015-Sep-03 10:32N 57°41' E 011°53'0 0.0
2015-Sep-03 09:32N 57°41' E 011°53'0 0.0
2015-Sep-03 08:32N 57°41' E 011°53'0 0.0
2015-Sep-03 07:32N 57°41' E 011°53'0 0.0
2015-Sep-03 06:32N 57°41' E 011°53'0 0.0
2015-Sep-03 05:32N 57°41' E 011°53'0 0.0
2015-Sep-03 04:32N 57°41' E 011°53'0 0.0
2015-Sep-03 03:32N 57°41' E 011°53'0 0.0
2015-Sep-03 02:32N 57°41' E 011°53'0 0.0
2015-Sep-03 01:32N 57°41' E 011°53'0 0.0
2015-Sep-03 00:32N 57°41' E 011°53'0 0.0
2015-Sep-02 23:32N 57°41' E 011°53'0 0.0
2015-Sep-02 22:32N 57°41' E 011°53'0 0.0
2015-Sep-02 21:26N 57°41' E 011°53'0 0.0
2015-Sep-02 20:34N 57°41' E 011°53'7 7.0
2015-Sep-02 19:33N 57°38' E 011°42'8 7.8
2015-Sep-02 18:33N 57°34' E 011°28'9 9.3
2015-Sep-02 17:33N 57°35' E 011°11'10 9.6
2015-Sep-02 16:31N 57°41' E 010°57'9 9.7
2015-Sep-02 15:33N 57°48' E 010°44'328 9.1
2015-Sep-01 03:26N 53°30' E 004°45'6 6.6
2015-Sep-01 02:28N 53°24' E 004°41'29 6.0
2015-Aug-31 21:33N 52°57' E 004°20'7 6.7
2015-Aug-31 20:32N 52°51' E 004°15'8 8.6
2015-Aug-31 19:34N 52°44' E 004°08'5810.7
2015-Aug-31 14:08N 51°53' E 003°22'16 9.7
2015-Aug-31 12:31N 51°37' E 003°22'8 8.7
2015-Aug-31 11:33N 51°30' E 003°28'8 7.5
2015-Aug-31 10:33N 51°26' E 003°39'9 8.9
2015-Aug-31 09:33N 51°21' E 003°50'8 8.2
2015-Aug-31 08:34N 51°24' E 004°02'9 9.4
2015-Aug-31 07:34N 51°21' E 004°16'5 4.8
2015-Aug-31 06:34N 51°17' E 004°20'2 1.5
2015-Aug-31 05:32N 51°15' E 004°22'0 0.0
2015-Aug-31 04:32N 51°15' E 004°22'0 0.0
2015-Aug-31 03:32N 51°15' E 004°22'0 0.0
2015-Aug-31 02:32N 51°15' E 004°22'0 0.0
2015-Aug-31 01:29N 51°15' E 004°22'0 0.0
2015-Aug-31 00:32N 51°15' E 004°22'0 0.0
2015-Aug-30 23:29N 51°15' E 004°22'0 0.0
2015-Aug-30 22:32N 51°15' E 004°22'0 0.0
2015-Aug-30 21:32N 51°15' E 004°22'0 0.0
2015-Aug-30 20:32N 51°15' E 004°22'0 0.0
2015-Aug-30 19:32N 51°15' E 004°22'0 0.0
2015-Aug-30 18:32N 51°15' E 004°22'0 0.0
2015-Aug-30 17:32N 51°15' E 004°22'0 0.0
2015-Aug-30 16:32N 51°15' E 004°22'0 0.0
2015-Aug-30 15:32N 51°15' E 004°22'0 0.0
2015-Aug-30 14:32N 51°15' E 004°22'0 0.0
2015-Aug-30 13:29N 51°15' E 004°22'0 0.0
2015-Aug-30 12:32N 51°15' E 004°22'0 0.0
2015-Aug-30 11:32N 51°15' E 004°22'0 0.0
2015-Aug-30 10:32N 51°15' E 004°22'0 0.0
2015-Aug-30 09:32N 51°15' E 004°22'0 0.0
2015-Aug-30 08:32N 51°15' E 004°22'0 0.0
2015-Aug-30 07:32N 51°15' E 004°22'0 0.0
2015-Aug-30 06:32N 51°15' E 004°22'0 0.0
2015-Aug-30 05:32N 51°15' E 004°22'0 0.0
2015-Aug-30 04:32N 51°15' E 004°22'0 0.0
2015-Aug-30 03:32N 51°15' E 004°22'0 0.0
2015-Aug-30 02:32N 51°15' E 004°22'0 0.0
2015-Aug-30 01:32N 51°15' E 004°22'0 0.0
2015-Aug-30 00:32N 51°15' E 004°22'0 0.0
2015-Aug-29 23:32N 51°15' E 004°22'0 0.0
2015-Aug-29 22:32N 51°15' E 004°22'0 0.0
2015-Aug-29 21:32N 51°15' E 004°22'0 0.0
2015-Aug-29 20:32N 51°15' E 004°22'0 0.0
2015-Aug-29 19:32N 51°15' E 004°22'0 0.0
2015-Aug-29 18:32N 51°15' E 004°22'0 0.0
2015-Aug-29 17:32N 51°15' E 004°22'0 0.0
2015-Aug-29 16:29N 51°15' E 004°22'0 0.3
2015-Aug-29 15:33N 51°16' E 004°21'1 1.4
2015-Aug-29 14:33N 51°17' E 004°20'5 4.6
2015-Aug-29 13:33N 51°21' E 004°16'9 9.0
2015-Aug-29 12:33N 51°23' E 004°02'9 8.8
2015-Aug-29 11:33N 51°21' E 003°49'1110.8
2015-Aug-29 10:33N 51°26' E 003°34'1110.9
2015-Aug-29 09:33N 51°35' E 003°23'57 9.5
2015-Aug-29 03:33N 52°32' E 003°29'8 8.3
2015-Aug-29 02:33N 52°40' E 003°34'67 9.2
2015-Aug-28 19:16N 53°31' E 004°47'9 8.5
2015-Aug-28 18:16N 53°34' E 005°00'6 8.2
2015-Aug-28 17:33N 53°36' E 005°10'8 7.9
2015-Aug-28 16:33N 53°38' E 005°22'8 8.3
2015-Aug-28 15:33N 53°41' E 005°36'9 9.2
2015-Aug-28 14:33N 53°45' E 005°50'49 9.8
2015-Aug-28 09:33N 53°58' E 007°10'9 8.7
2015-Aug-28 08:33N 53°59' E 007°24'8 8.4
2015-Aug-28 07:33N 54°01' E 007°39'8 8.2
2015-Aug-28 06:33N 54°02' E 007°52'8 8.3
2015-Aug-28 05:33N 54°01' E 008°07'8 8.3
2015-Aug-28 04:33N 53°60' E 008°20'1110.9
2015-Aug-28 03:33N 53°57' E 008°38'1111.2
2015-Aug-28 02:33N 53°51' E 008°54'9 9.1
2015-Aug-28 01:33N 53°54' E 009°09'5 4.6
2015-Aug-28 00:33N 53°57' E 009°14'24 7.7
2015-Aug-27 21:30N 54°16' E 009°38'8 8.2
2015-Aug-27 20:33N 54°22' E 009°47'8 8.0
2015-Aug-27 19:33N 54°21' E 010°01'2 1.6
2015-Aug-27 18:33N 54°22' E 010°04'3 3.3
2015-Aug-27 17:33N 54°22' E 010°09'5 5.0
2015-Aug-27 16:33N 54°26' E 010°13'8 8.1
2015-Aug-27 15:33N 54°32' E 010°24'9 9.0
2015-Aug-27 14:33N 54°35' E 010°39'18 8.9
2015-Aug-27 12:33N 54°36' E 011°09'9 8.9
2015-Aug-27 11:33N 54°33' E 011°23'10 9.6
2015-Aug-27 10:33N 54°29' E 011°38'9 9.3
2015-Aug-27 09:33N 54°27' E 011°54'9 9.1
2015-Aug-27 08:33N 54°28' E 012°10'36 8.7
2015-Aug-27 04:25N 54°51' E 012°57'8 8.8
2015-Aug-27 03:33N 54°53' E 013°10'9 9.0
2015-Aug-27 02:32N 54°57' E 013°24'9 9.0
2015-Aug-27 01:33N 54°60' E 013°39'9 8.7
2015-Aug-27 00:33N 55°02' E 013°53'8 8.4
2015-Aug-26 23:33N 55°06' E 014°06'8 8.5
2015-Aug-26 22:33N 55°13' E 014°16'9 8.8
2015-Aug-26 21:33N 55°20' E 014°25'9 9.1
2015-Aug-26 20:33N 55°26' E 014°36'9 9.2
2015-Aug-26 19:33N 55°31' E 014°50'9 9.1
2015-Aug-26 18:33N 55°36' E 015°03'  

Dump ship's entire track history